Time;durP1;ratioP1;P1;durP2;ratioP2;P2;SDS_P1;SDS_P2;PMS_P1;PMS_P2;Temp;Humidity;BMP_temperature;BMP_pressure;BME280_temperature;BME280_humidity;BME280_pressure;Samples;Min_cycle;Max_cycle;Signal;HPM_P1;HPM_P2
2023/12/08 00:00:45;;;;;;;15.48;5.57;;;8.80;99.90;;;;;;5093113;28;20040;-70
2023/12/08 00:03:13;;;;;;;19.70;5.13;;;8.80;99.90;;;;;;5096419;28;20115;-70
2023/12/08 00:05:39;;;;;;;14.50;4.47;;;8.80;99.90;;;;;;5096067;28;20040;-70
2023/12/08 00:08:07;;;;;;;17.40;4.53;;;8.80;99.90;;;;;;5096324;28;20056;-70
2023/12/08 00:10:33;;;;;;;13.63;4.85;;;8.80;99.90;;;;;;5096240;28;20051;-70
2023/12/08 00:13:00;;;;;;;16.67;4.53;;;8.80;99.90;;;;;;5096351;28;20036;-70
2023/12/08 00:15:27;;;;;;;20.35;4.88;;;8.80;99.90;;;;;;5096211;28;20401;-70
2023/12/08 00:17:54;;;;;;;16.23;4.35;;;8.80;99.90;;;;;;5095285;28;20044;-70
2023/12/08 00:20:20;;;;;;;19.67;4.35;;;8.70;99.90;;;;;;5095931;28;20032;-70
2023/12/08 00:22:47;;;;;;;18.55;4.80;;;8.70;99.90;;;;;;5096131;28;20118;-70
2023/12/08 00:25:15;;;;;;;18.30;4.47;;;8.70;99.90;;;;;;5094904;28;20044;-70
2023/12/08 00:27:42;;;;;;;20.15;4.57;;;8.60;99.90;;;;;;5095962;28;20119;-70
2023/12/08 00:30:09;;;;;;;17.75;5.00;;;8.60;99.90;;;;;;5096085;28;20048;-70
2023/12/08 00:32:36;;;;;;;18.35;4.28;;;8.60;99.90;;;;;;5094907;28;20477;-70
2023/12/08 00:35:03;;;;;;;19.23;4.40;;;8.60;99.90;;;;;;5094896;28;20461;-70
2023/12/08 00:37:29;;;;;;;27.35;5.10;;;8.50;99.90;;;;;;5095068;28;20042;-70
2023/12/08 00:39:56;;;;;;;21.00;4.55;;;8.50;99.90;;;;;;5094130;28;20043;-70
2023/12/08 00:42:23;;;;;;;18.83;5.20;;;8.50;99.90;;;;;;5094556;28;20452;-70
2023/12/08 00:44:50;;;;;;;22.95;4.50;;;8.50;99.90;;;;;;5096006;28;20396;-70
2023/12/08 00:47:16;;;;;;;24.45;4.68;;;8.50;99.90;;;;;;5095789;28;20040;-70
2023/12/08 00:49:43;;;;;;;27.65;4.88;;;8.50;99.90;;;;;;5095587;28;20400;-70
2023/12/08 00:52:10;;;;;;;23.50;4.38;;;8.50;99.90;;;;;;5095529;28;20044;-70
2023/12/08 00:54:37;;;;;;;18.75;4.55;;;8.50;99.90;;;;;;5095257;28;20048;-71
2023/12/08 00:57:04;;;;;;;27.70;5.40;;;8.50;99.90;;;;;;5094171;28;20046;-70
2023/12/08 00:59:31;;;;;;;23.02;4.63;;;8.50;99.90;;;;;;5095039;28;20063;-70
2023/12/08 01:01:57;;;;;;;24.23;4.53;;;8.40;99.90;;;;;;5095310;28;20040;-70
2023/12/08 01:04:24;;;;;;;25.70;5.25;;;8.40;99.90;;;;;;5094021;28;20032;-70
2023/12/08 01:06:51;;;;;;;25.45;5.25;;;8.40;99.90;;;;;;5095537;28;20358;-70
2023/12/08 01:09:18;;;;;;;25.27;4.72;;;8.40;99.90;;;;;;5095441;28;20043;-70
2023/12/08 01:11:44;;;;;;;22.83;4.90;;;8.40;99.90;;;;;;5093708;28;20083;-70
2023/12/08 01:14:11;;;;;;;27.63;5.43;;;8.40;99.90;;;;;;5095103;28;20064;-70
2023/12/08 01:16:38;;;;;;;32.90;4.88;;;8.30;99.90;;;;;;5093851;28;20048;-70
2023/12/08 01:19:08;;;;;;;29.65;5.93;;;8.30;99.90;;;;;;5095184;28;20073;-70
2023/12/08 01:21:35;;;;;;;28.02;5.05;;;8.30;99.90;;;;;;5094784;28;20515;-70
2023/12/08 01:24:01;;;;;;;32.45;5.18;;;8.30;99.90;;;;;;5094847;28;20058;-70
2023/12/08 01:26:28;;;;;;;23.83;4.95;;;8.30;99.90;;;;;;5095188;28;20044;-70
2023/12/08 01:28:55;;;;;;;35.25;5.97;;;8.30;99.90;;;;;;5094870;28;20131;-70
2023/12/08 01:31:22;;;;;;;28.40;5.55;;;8.30;99.90;;;;;;5093919;28;20048;-70
2023/12/08 01:33:48;;;;;;;34.95;5.18;;;8.30;99.90;;;;;;5094948;28;20044;-70
2023/12/08 01:36:15;;;;;;;30.35;5.05;;;8.30;99.90;;;;;;5094873;28;20040;-70
2023/12/08 01:39:02;;;;;;;31.80;5.63;;;8.30;99.90;;;;;;5093518;28;20046;-70
2023/12/08 01:41:29;;;;;;;35.67;5.30;;;8.30;99.90;;;;;;5094767;28;20473;-69
2023/12/08 01:43:56;;;;;;;29.80;5.95;;;8.30;99.90;;;;;;5093554;28;20032;-70
2023/12/08 01:46:23;;;;;;;25.92;5.68;;;8.30;99.90;;;;;;5094514;28;20040;-70
2023/12/08 01:48:50;;;;;;;30.70;5.43;;;8.30;99.90;;;;;;5094634;28;20040;-70
2023/12/08 01:51:17;;;;;;;31.65;5.63;;;8.30;99.90;;;;;;5094295;28;20044;-70
2023/12/08 01:53:44;;;;;;;26.60;5.57;;;8.30;99.90;;;;;;5094467;28;20072;-70
2023/12/08 01:56:10;;;;;;;30.50;5.25;;;8.30;99.90;;;;;;5094054;28;20093;-70
2023/12/08 01:58:37;;;;;;;35.60;5.20;;;8.30;99.90;;;;;;5093107;28;20097;-69
2023/12/08 02:01:04;;;;;;;27.83;5.70;;;8.30;99.90;;;;;;5093272;28;20036;-70
2023/12/08 02:03:31;;;;;;;24.67;5.18;;;8.30;99.90;;;;;;5093324;28;20044;-69
2023/12/08 02:05:58;;;;;;;28.77;4.35;;;8.30;99.90;;;;;;5093863;28;20138;-69
2023/12/08 02:08:25;;;;;;;30.40;5.47;;;8.30;99.90;;;;;;5092514;28;20048;-70
2023/12/08 02:10:52;;;;;;;26.65;4.85;;;8.30;99.90;;;;;;5093748;28;20040;-70
2023/12/08 02:13:19;;;;;;;33.22;6.30;;;8.30;99.90;;;;;;5094121;28;20499;-70
2023/12/08 02:15:46;;;;;;;28.27;5.03;;;8.30;99.90;;;;;;5094462;28;20040;-69
2023/12/08 02:18:13;;;;;;;34.28;4.90;;;8.30;99.90;;;;;;5092873;28;20055;-70
2023/12/08 02:20:40;;;;;;;26.48;4.85;;;8.30;99.90;;;;;;5093936;28;20036;-70
2023/12/08 02:23:06;;;;;;;33.17;5.32;;;8.30;99.90;;;;;;5093613;28;20086;-70
2023/12/08 02:25:34;;;;;;;29.00;5.95;;;8.30;99.90;;;;;;5094147;28;20032;-69
2023/12/08 02:28:01;;;;;;;35.63;5.25;;;8.30;99.90;;;;;;5094093;28;20039;-70
2023/12/08 02:30:28;;;;;;;30.92;5.25;;;8.30;99.90;;;;;;5094006;28;20547;-70
2023/12/08 02:32:55;;;;;;;33.55;5.95;;;8.30;99.90;;;;;;5092294;28;20508;-70
2023/12/08 02:35:22;;;;;;;33.38;5.65;;;8.20;99.90;;;;;;5093940;28;20040;-70
2023/12/08 02:37:48;;;;;;;30.33;5.97;;;8.30;99.90;;;;;;5092122;28;20456;-69
2023/12/08 02:40:15;;;;;;;28.63;5.43;;;8.30;99.90;;;;;;5093761;28;20366;-70
2023/12/08 02:42:42;;;;;;;34.88;6.15;;;8.20;99.90;;;;;;5093739;28;20436;-71
2023/12/08 02:45:09;;;;;;;35.28;6.93;;;8.30;99.90;;;;;;5093714;28;20388;-70
2023/12/08 02:47:36;;;;;;;33.53;6.57;;;8.20;99.90;;;;;;5093981;28;20040;-70
2023/12/08 02:50:03;;;;;;;39.35;5.72;;;8.20;99.90;;;;;;5093935;28;20044;-70
2023/12/08 02:52:30;;;;;;;34.13;5.38;;;8.30;99.90;;;;;;5093695;28;20075;-70
2023/12/08 02:54:56;;;;;;;31.90;5.30;;;8.30;99.90;;;;;;5092600;28;20469;-70
2023/12/08 02:57:24;;;;;;;29.38;5.65;;;8.20;99.90;;;;;;5093565;28;20495;-70
2023/12/08 02:59:51;;;;;;;30.85;5.28;;;8.30;99.90;;;;;;5093399;28;20037;-70
2023/12/08 03:02:18;;;;;;;28.65;6.10;;;8.20;99.90;;;;;;5093399;28;20110;-70
2023/12/08 03:04:45;;;;;;;34.22;6.55;;;8.20;99.90;;;;;;5093856;28;20457;-70
2023/12/08 03:07:12;;;;;;;39.28;5.35;;;8.20;99.90;;;;;;5093666;28;20512;-70
2023/12/08 03:09:38;;;;;;;30.17;5.22;;;8.10;99.90;;;;;;5093650;28;20044;-70
2023/12/08 03:12:05;;;;;;;31.67;5.07;;;8.10;99.90;;;;;;5093536;28;20119;-70
2023/12/08 03:14:32;;;;;;;33.20;5.25;;;8.10;99.90;;;;;;5093391;28;20044;-70
2023/12/08 03:16:59;;;;;;;30.83;5.85;;;8.10;99.90;;;;;;5093582;28;20040;-70
2023/12/08 03:19:26;;;;;;;32.85;4.78;;;8.00;99.90;;;;;;5093510;28;20477;-69
2023/12/08 03:21:52;;;;;;;30.77;5.20;;;8.00;99.90;;;;;;5093927;28;20135;-70
2023/12/08 03:24:19;;;;;;;37.03;5.50;;;7.90;99.90;;;;;;5097282;28;20036;-70
2023/12/08 03:26:46;;;;;;;32.17;6.20;;;7.90;99.90;;;;;;5096265;28;20048;-70
2023/12/08 03:29:15;;;;;;;38.88;6.20;;;7.90;99.90;;;;;;5096947;28;20032;-69
2023/12/08 03:31:43;;;;;;;26.85;5.07;;;7.90;99.90;;;;;;5097270;28;20060;-70
2023/12/08 03:34:10;;;;;;;33.60;5.82;;;7.90;99.90;;;;;;5097039;28;20111;-70
2023/12/08 03:36:37;;;;;;;36.17;5.68;;;7.90;99.90;;;;;;5096856;28;20063;-69
2023/12/08 03:39:04;;;;;;;35.53;5.75;;;7.80;99.90;;;;;;5097106;28;20040;-70
2023/12/08 03:41:30;;;;;;;35.70;5.30;;;7.80;99.90;;;;;;5096591;28;20357;-69
2023/12/08 03:43:57;;;;;;;35.45;6.30;;;7.70;99.90;;;;;;5097222;28;20125;-70
2023/12/08 03:46:24;;;;;;;30.45;5.80;;;7.70;99.90;;;;;;5097043;28;20036;-63
2023/12/08 03:48:51;;;;;;;31.15;5.18;;;7.70;99.90;;;;;;5097068;28;20044;-64
2023/12/08 03:51:21;;;;;;;32.40;5.63;;;7.70;99.90;;;;;;5096844;28;20044;-64
2023/12/08 03:53:48;;;;;;;40.45;5.82;;;7.60;99.90;;;;;;5096909;28;20050;-64
2023/12/08 03:56:15;;;;;;;30.15;5.32;;;7.60;99.90;;;;;;5096825;28;20054;-63
2023/12/08 03:58:41;;;;;;;28.25;5.10;;;7.50;99.90;;;;;;5096741;28;20041;-63
2023/12/08 04:01:08;;;;;;;27.15;5.60;;;7.50;99.90;;;;;;5096220;28;20040;-63
2023/12/08 04:03:39;;;;;;;31.70;4.90;;;7.50;99.90;;;;;;5096549;28;20063;-63
2023/12/08 04:06:06;;;;;;;31.67;5.82;;;7.50;99.90;;;;;;5095640;28;20482;-64
2023/12/08 04:08:33;;;;;;;29.00;5.20;;;7.40;99.90;;;;;;5096368;28;20051;-63
2023/12/08 04:11:00;;;;;;;34.60;5.38;;;7.40;99.90;;;;;;5096464;28;20040;-64
2023/12/08 04:13:27;;;;;;;32.50;5.38;;;7.40;99.90;;;;;;5096307;28;20054;-63
2023/12/08 04:15:53;;;;;;;34.22;5.63;;;7.40;99.90;;;;;;5096595;28;20391;-63
2023/12/08 04:18:20;;;;;;;34.63;4.93;;;7.40;99.90;;;;;;5096034;28;20374;-63
2023/12/08 04:20:47;;;;;;;31.05;6.00;;;7.40;99.90;;;;;;5096122;28;20040;-64
2023/12/08 04:23:14;;;;;;;35.45;5.25;;;7.40;99.90;;;;;;5096336;28;20043;-64
2023/12/08 04:25:41;;;;;;;33.85;5.55;;;7.40;99.90;;;;;;5096473;28;20040;-64
2023/12/08 04:28:08;;;;;;;35.85;5.78;;;7.40;99.90;;;;;;5095990;28;20389;-64
2023/12/08 04:30:35;;;;;;;29.98;5.40;;;7.40;99.90;;;;;;5096381;28;20048;-63
2023/12/08 04:33:02;;;;;;;37.67;6.13;;;7.40;99.90;;;;;;5094465;28;20043;-63
2023/12/08 04:35:29;;;;;;;31.55;5.80;;;7.40;99.90;;;;;;5095925;28;20048;-63
2023/12/08 04:37:55;;;;;;;30.52;5.78;;;7.40;99.90;;;;;;5095892;28;20066;-63
2023/12/08 04:40:22;;;;;;;30.70;5.45;;;7.40;99.90;;;;;;5095616;28;20044;-63
2023/12/08 04:42:49;;;;;;;37.78;7.40;;;7.40;99.90;;;;;;5095569;28;20146;-63
2023/12/08 04:45:16;;;;;;;35.92;6.25;;;7.40;99.90;;;;;;5094678;28;20040;-63
2023/12/08 04:47:43;;;;;;;38.40;5.50;;;7.40;99.90;;;;;;5095996;28;20079;-63
2023/12/08 04:50:10;;;;;;;33.42;5.00;;;7.40;99.90;;;;;;5094761;28;20124;-63
2023/12/08 04:52:36;;;;;;;34.83;5.97;;;7.40;99.90;;;;;;5095754;28;20492;-64
2023/12/08 04:55:04;;;;;;;31.30;5.70;;;7.40;99.90;;;;;;5095793;28;20059;-64
2023/12/08 04:57:34;;;;;;;33.85;6.00;;;7.40;99.90;;;;;;5094457;28;20500;-64
2023/12/08 05:00:01;;;;;;;35.25;5.68;;;7.40;99.90;;;;;;5095258;28;20131;-64
2023/12/08 05:02:28;;;;;;;35.53;6.03;;;7.40;99.90;;;;;;5095819;28;20042;-64
2023/12/08 05:04:55;;;;;;;33.47;5.53;;;7.40;99.90;;;;;;5095396;28;20081;-65
2023/12/08 05:07:21;;;;;;;33.03;6.03;;;7.40;99.90;;;;;;5095173;28;20044;-63
2023/12/08 05:09:48;;;;;;;38.45;5.43;;;7.30;99.90;;;;;;5095488;28;20047;-69
2023/12/08 05:12:15;;;;;;;34.35;5.35;;;7.30;99.90;;;;;;5095090;28;20043;-70
2023/12/08 05:14:42;;;;;;;33.15;4.82;;;7.30;99.90;;;;;;5095090;28;20113;-70
2023/12/08 05:17:08;;;;;;;36.20;5.72;;;7.30;99.90;;;;;;5094902;28;20122;-70
2023/12/08 05:19:35;;;;;;;35.50;5.82;;;7.30;99.90;;;;;;5095170;28;20105;-71
2023/12/08 05:22:03;;;;;;;36.55;5.68;;;7.20;99.90;;;;;;5095255;28;20036;-71
2023/12/08 05:24:30;;;;;;;50.35;6.15;;;7.20;99.90;;;;;;5094968;28;20127;-70
2023/12/08 05:26:56;;;;;;;41.03;5.80;;;7.20;99.90;;;;;;5093731;28;20046;-70
2023/12/08 05:29:23;;;;;;;35.35;6.20;;;7.20;99.90;;;;;;5094576;28;20131;-71
2023/12/08 05:31:50;;;;;;;34.75;5.20;;;7.20;99.90;;;;;;5094821;28;20063;-71
2023/12/08 05:34:17;;;;;;;27.80;4.93;;;7.10;99.90;;;;;;5095164;28;20046;-71
2023/12/08 05:36:43;;;;;;;26.05;4.90;;;7.10;99.90;;;;;;5094886;28;20036;-71
2023/12/08 05:39:10;;;;;;;37.00;5.55;;;7.10;99.90;;;;;;5094507;28;20040;-71
2023/12/08 05:41:37;;;;;;;36.38;6.47;;;7.10;99.90;;;;;;5094515;28;20534;-65
2023/12/08 05:44:04;;;;;;;36.70;5.60;;;7.10;99.90;;;;;;5094522;28;20047;-65
2023/12/08 05:46:32;;;;;;;40.08;5.32;;;7.10;99.90;;;;;;5094554;28;20388;-65
2023/12/08 05:48:58;;;;;;;26.83;4.88;;;7.00;99.90;;;;;;5094601;28;20067;-65
2023/12/08 05:51:25;;;;;;;29.63;5.38;;;7.00;99.90;;;;;;5094633;28;20040;-65
2023/12/08 05:53:52;;;;;;;37.10;5.40;;;7.00;99.90;;;;;;5094306;28;20044;-65
2023/12/08 05:56:19;;;;;;;34.88;5.57;;;6.90;99.90;;;;;;5094563;28;20552;-65
2023/12/08 05:58:46;;;;;;;31.13;5.03;;;7.00;99.90;;;;;;5094148;28;20440;-64
2023/12/08 06:01:13;;;;;;;34.85;5.93;;;6.90;99.90;;;;;;5094323;28;20044;-64
2023/12/08 06:03:39;;;;;;;40.45;6.07;;;6.90;99.90;;;;;;5093917;28;20048;-64
2023/12/08 06:06:06;;;;;;;30.98;5.40;;;6.90;99.90;;;;;;5094542;28;20439;-64
2023/12/08 06:08:33;;;;;;;42.97;6.97;;;7.00;99.90;;;;;;5094000;28;20101;-64
2023/12/08 06:11:00;;;;;;;34.30;5.70;;;6.90;99.90;;;;;;5094488;28;20044;-65
2023/12/08 06:13:27;;;;;;;39.88;5.30;;;6.90;99.90;;;;;;5092887;28;20051;-64
2023/12/08 06:15:54;;;;;;;40.90;6.55;;;6.90;99.90;;;;;;5093945;28;20511;-64
2023/12/08 06:18:20;;;;;;;30.33;5.30;;;6.90;99.90;;;;;;5093956;28;20059;-64
2023/12/08 06:20:48;;;;;;;39.88;5.35;;;6.90;99.90;;;;;;5093941;28;20032;-64
2023/12/08 06:23:14;;;;;;;41.53;6.45;;;6.90;99.90;;;;;;5093921;28;20062;-64
2023/12/08 06:25:41;;;;;;;35.88;6.70;;;6.90;99.90;;;;;;5093736;28;20121;-65
2023/12/08 06:28:08;;;;;;;33.30;5.25;;;6.90;99.90;;;;;;5093730;28;20119;-65
2023/12/08 06:30:35;;;;;;;35.70;6.88;;;6.90;99.90;;;;;;5093977;28;20126;-64
2023/12/08 06:33:02;;;;;;;27.10;4.75;;;6.90;99.90;;;;;;5094069;28;20055;-64
2023/12/08 06:35:29;;;;;;;30.55;5.40;;;6.90;99.90;;;;;;5093803;28;20043;-65
2023/12/08 06:37:56;;;;;;;29.23;5.43;;;6.90;99.90;;;;;;5094037;28;20052;-70
2023/12/08 06:40:22;;;;;;;36.15;4.82;;;6.90;99.90;;;;;;5093659;28;20059;-70
2023/12/08 06:42:49;;;;;;;36.70;6.05;;;6.90;99.90;;;;;;5093527;28;20082;-64
2023/12/08 06:45:16;;;;;;;28.80;4.95;;;6.90;99.90;;;;;;5094196;28;20032;-64
2023/12/08 06:47:43;;;;;;;36.60;6.30;;;6.90;99.90;;;;;;5092854;28;20123;-64
2023/12/08 06:50:10;;;;;;;38.83;5.57;;;6.90;99.90;;;;;;5094131;28;20434;-64
2023/12/08 06:52:37;;;;;;;29.27;5.53;;;7.00;99.90;;;;;;5092677;28;20070;-64
2023/12/08 06:55:03;;;;;;;33.75;6.00;;;6.90;99.90;;;;;;5092462;28;20048;-64
2023/12/08 06:57:30;;;;;;;35.40;5.13;;;6.90;99.90;;;;;;5097352;28;20036;-64
2023/12/08 06:59:57;;;;;;;34.08;4.30;;;6.90;99.90;;;;;;5097548;28;20040;-64
2023/12/08 07:02:26;;;;;;;29.27;4.60;;;6.90;99.90;;;;;;5098123;28;20040;-64
2023/12/08 07:04:53;;;;;;;26.25;4.45;;;6.90;99.90;;;;;;5096862;28;20043;-64
2023/12/08 07:07:20;;;;;;;26.10;5.13;;;6.90;99.90;;;;;;5097976;28;20028;-64
2023/12/08 07:09:47;;;;;;;30.88;5.03;;;6.80;99.90;;;;;;5097129;28;20040;-64
2023/12/08 07:12:13;;;;;;;25.17;4.68;;;6.80;99.90;;;;;;5097553;28;20046;-64
2023/12/08 07:14:40;;;;;;;27.00;6.00;;;6.90;99.90;;;;;;5097803;28;20138;-64
2023/12/08 07:17:07;;;;;;;28.00;4.85;;;6.80;99.90;;;;;;5097739;28;20123;-64
2023/12/08 07:19:34;;;;;;;26.00;4.28;;;6.80;99.90;;;;;;5097610;28;20039;-64
2023/12/08 07:22:01;;;;;;;30.02;5.10;;;6.90;99.90;;;;;;5097226;28;20396;-64
2023/12/08 07:24:28;;;;;;;24.27;4.57;;;6.90;99.90;;;;;;5097333;28;20032;-64
2023/12/08 07:26:54;;;;;;;32.22;5.18;;;6.90;99.90;;;;;;5097021;28;20044;-65
2023/12/08 07:29:22;;;;;;;25.10;4.63;;;6.90;99.90;;;;;;5096999;28;20036;-67
2023/12/08 07:31:49;;;;;;;29.20;5.07;;;6.90;99.90;;;;;;5097115;28;20040;-64
2023/12/08 07:34:15;;;;;;;30.80;5.45;;;6.90;99.90;;;;;;5097395;28;20040;-64
2023/12/08 07:36:42;;;;;;;27.92;4.05;;;7.00;99.90;;;;;;5097037;28;20051;-64
2023/12/08 07:39:10;;;;;;;24.85;4.07;;;6.90;99.90;;;;;;5096788;28;20080;-64
2023/12/08 07:41:37;;;;;;;25.40;4.10;;;6.90;99.90;;;;;;5095374;28;20073;-64
2023/12/08 07:44:04;;;;;;;34.00;5.65;;;6.90;99.90;;;;;;5096876;28;20081;-64
2023/12/08 07:46:31;;;;;;;31.83;5.18;;;6.90;99.90;;;;;;5096358;28;20123;-65
2023/12/08 07:48:58;;;;;;;31.50;4.80;;;6.90;99.90;;;;;;5096607;28;20499;-64
2023/12/08 07:51:25;;;;;;;33.08;4.57;;;6.90;99.90;;;;;;5096695;28;20068;-64
2023/12/08 07:53:52;;;;;;;25.42;4.20;;;6.90;99.90;;;;;;5096674;28;20477;-70
2023/12/08 07:56:19;;;;;;;29.00;5.60;;;6.90;99.90;;;;;;5097236;28;20052;-69
2023/12/08 07:58:45;;;;;;;27.55;4.32;;;7.00;99.90;;;;;;5096529;28;20116;-70
2023/12/08 08:01:12;;;;;;;32.47;4.53;;;7.00;99.90;;;;;;5096259;28;20036;-70
2023/12/08 08:03:39;;;;;;;25.63;4.97;;;7.00;99.90;;;;;;5095605;28;20036;-70
2023/12/08 08:06:06;;;;;;;27.42;4.82;;;7.00;99.90;;;;;;5095162;28;20431;-71
2023/12/08 08:08:33;;;;;;;29.40;4.68;;;7.10;99.90;;;;;;5095435;28;20131;-71
2023/12/08 08:11:00;;;;;;;21.88;3.85;;;7.10;99.90;;;;;;5096255;28;20043;-71
2023/12/08 08:13:27;;;;;;;27.38;4.53;;;7.10;99.90;;;;;;5096200;28;20176;-70
2023/12/08 08:15:54;;;;;;;28.33;4.63;;;7.10;99.90;;;;;;5096683;28;20047;-64
2023/12/08 08:18:21;;;;;;;36.05;6.07;;;7.10;99.90;;;;;;5096304;28;20126;-64
2023/12/08 08:20:49;;;;;;;29.67;5.15;;;7.10;99.90;;;;;;5095899;28;20036;-64
2023/12/08 08:23:16;;;;;;;27.17;4.93;;;7.20;99.90;;;;;;5096286;28;20511;-64
2023/12/08 08:25:43;;;;;;;32.67;4.53;;;7.20;99.90;;;;;;5096408;28;20190;-64
2023/12/08 08:28:10;;;;;;;32.58;4.95;;;7.20;99.90;;;;;;5095957;28;20044;-64
2023/12/08 08:30:36;;;;;;;27.90;4.32;;;7.10;99.90;;;;;;5096375;28;20032;-64
2023/12/08 08:33:03;;;;;;;27.58;4.45;;;7.20;99.90;;;;;;5095563;28;20036;-64
2023/12/08 08:35:30;;;;;;;25.83;4.15;;;7.20;99.90;;;;;;5091843;28;20108;-64
2023/12/08 08:37:58;;;;;;;25.02;4.97;;;7.20;99.90;;;;;;5085843;28;20037;-63
2023/12/08 08:40:25;;;;;;;30.95;6.30;;;7.20;99.90;;;;;;5079091;28;20051;-64
2023/12/08 08:42:51;;;;;;;39.15;7.90;;;7.30;99.90;;;;;;5074710;28;20055;-64
2023/12/08 08:45:19;;;;;;;30.83;4.97;;;7.30;99.90;;;;;;5074018;28;20057;-69
2023/12/08 08:47:46;;;;;;;74.00;10.43;;;7.30;99.90;;;;;;5073766;28;20052;-69
2023/12/08 08:50:13;;;;;;;36.35;6.03;;;7.40;99.90;;;;;;5078637;28;20055;-69
2023/12/08 08:52:40;;;;;;;29.20;4.85;;;7.40;99.90;;;;;;5073758;28;20033;-69
2023/12/08 08:55:06;;;;;;;27.10;4.30;;;7.40;99.90;;;;;;5083542;28;20516;-64
2023/12/08 08:57:33;;;;;;;26.70;5.00;;;7.50;99.90;;;;;;5071890;28;20040;-64
2023/12/08 09:00:00;;;;;;;48.85;7.68;;;7.50;99.90;;;;;;5083021;28;20433;-64
2023/12/08 09:02:27;;;;;;;74.20;9.00;;;7.50;99.90;;;;;;5074693;28;20045;-63
2023/12/08 09:04:54;;;;;;;26.52;4.75;;;7.50;99.90;;;;;;5080677;28;20036;-62
2023/12/08 09:07:21;;;;;;;28.25;5.60;;;7.50;99.90;;;;;;5080692;28;20071;-63
2023/12/08 09:09:48;;;;;;;63.13;8.00;;;7.50;99.90;;;;;;5073317;28;20033;-63
2023/12/08 09:12:15;;;;;;;30.58;5.32;;;7.50;99.90;;;;;;5073339;28;20480;-63
2023/12/08 09:14:42;;;;;;;32.17;5.13;;;7.50;99.90;;;;;;5079613;28;20032;-63
2023/12/08 09:17:08;;;;;;;129.50;15.20;;;7.60;99.90;;;;;;5078475;28;20098;-63
2023/12/08 09:19:35;;;;;;;32.80;6.28;;;7.60;99.90;;;;;;5074422;28;20094;-63
2023/12/08 09:22:03;;;;;;;26.88;4.57;;;7.60;99.90;;;;;;5075109;28;20402;-63
2023/12/08 09:24:30;;;;;;;34.28;5.00;;;7.60;99.90;;;;;;5088256;28;20398;-63
2023/12/08 09:26:57;;;;;;;31.60;5.45;;;7.60;99.90;;;;;;5074243;28;20047;-64
2023/12/08 09:29:23;;;;;;;34.55;5.47;;;7.60;99.90;;;;;;5083837;28;20059;-64
2023/12/08 09:31:50;;;;;;;27.20;4.68;;;7.70;99.90;;;;;;5074099;28;20036;-64
2023/12/08 09:34:17;;;;;;;83.22;10.10;;;7.70;99.90;;;;;;5072760;28;20436;-64
2023/12/08 09:36:44;;;;;;;30.45;4.90;;;7.80;99.90;;;;;;5074405;28;20048;-64
2023/12/08 09:39:32;;;;;;;39.78;5.28;;;7.80;99.90;;;;;;5073803;28;20481;-64
2023/12/08 09:41:59;;;;;;;33.00;4.82;;;7.90;99.90;;;;;;5073364;28;20055;-63
2023/12/08 09:44:26;;;;;;;28.35;5.22;;;7.90;99.90;;;;;;5072502;28;20060;-64
2023/12/08 09:46:55;;;;;;;30.35;4.95;;;8.00;99.90;;;;;;5073618;28;20044;-63
2023/12/08 09:49:22;;;;;;;33.50;4.70;;;8.00;99.90;;;;;;5073383;28;20064;-64
2023/12/08 09:51:49;;;;;;;26.17;5.93;;;8.10;99.90;;;;;;5073958;28;20045;-64
2023/12/08 09:54:16;;;;;;;28.13;4.97;;;8.10;99.90;;;;;;5073948;28;20113;-64
2023/12/08 09:56:43;;;;;;;32.58;5.20;;;8.20;99.90;;;;;;5076751;28;20434;-63
2023/12/08 09:59:10;;;;;;;30.55;5.15;;;8.30;99.90;;;;;;5082232;28;20089;-64
2023/12/08 10:01:36;;;;;;;30.90;6.00;;;8.30;99.90;;;;;;5073506;28;20047;-63
2023/12/08 10:04:03;;;;;;;28.35;5.45;;;8.30;99.90;;;;;;5076120;28;20048;-63
2023/12/08 10:06:30;;;;;;;32.53;5.47;;;8.40;99.90;;;;;;5073631;28;20052;-64
2023/12/08 10:08:57;;;;;;;32.92;5.88;;;8.40;99.90;;;;;;5073300;28;20086;-64
2023/12/08 10:11:24;;;;;;;30.73;5.25;;;8.50;99.90;;;;;;5073401;28;20048;-64
2023/12/08 10:13:51;;;;;;;38.60;6.20;;;8.50;99.90;;;;;;5082253;28;20051;-64
2023/12/08 10:16:18;;;;;;;30.52;5.57;;;8.60;99.90;;;;;;5075660;28;20099;-64
2023/12/08 10:18:45;;;;;;;31.83;6.07;;;8.70;99.90;;;;;;5083090;28;20054;-64
2023/12/08 10:21:12;;;;;;;34.03;5.88;;;8.70;99.90;;;;;;5075380;28;20052;-65
2023/12/08 10:23:40;;;;;;;28.77;5.85;;;8.80;99.90;;;;;;5073068;28;20043;-64
2023/12/08 10:26:07;;;;;;;29.45;5.28;;;8.80;99.90;;;;;;5073263;28;20044;-64
2023/12/08 10:28:33;;;;;;;30.05;6.30;;;8.80;99.90;;;;;;5073015;28;20044;-64
2023/12/08 10:31:00;;;;;;;24.30;4.97;;;8.90;99.90;;;;;;5072531;28;20033;-64
2023/12/08 10:33:27;;;;;;;31.92;6.57;;;9.00;99.90;;;;;;5071844;28;20032;-64
2023/12/08 10:35:54;;;;;;;36.83;5.85;;;9.00;99.90;;;;;;5073227;28;20059;-64
2023/12/08 10:38:21;;;;;;;29.35;6.93;;;9.10;99.90;;;;;;5087991;28;20078;-63
2023/12/08 10:40:48;;;;;;;39.17;8.35;;;9.20;99.90;;;;;;5075875;28;20118;-63
2023/12/08 10:43:19;;;;;;;36.38;9.23;;;9.20;99.90;;;;;;5072900;28;20044;-63
2023/12/08 10:45:46;;;;;;;33.75;8.18;;;9.20;99.90;;;;;;5071783;28;20058;-63
2023/12/08 10:48:13;;;;;;;41.30;7.97;;;9.30;99.90;;;;;;5072950;28;20060;-63
2023/12/08 10:50:42;;;;;;;35.65;8.15;;;9.30;99.90;;;;;;5072898;28;20115;-63
2023/12/08 10:53:08;;;;;;;41.17;8.05;;;9.30;99.90;;;;;;5072965;28;20040;-63
2023/12/08 10:55:35;;;;;;;33.38;8.02;;;9.40;99.90;;;;;;5082199;28;20043;-68
2023/12/08 10:58:02;;;;;;;38.97;8.48;;;9.40;99.90;;;;;;5092215;28;20489;-68
2023/12/08 11:00:32;;;;;;;26.45;6.88;;;9.40;99.90;;;;;;5084231;28;20048;-68
2023/12/08 11:02:59;;;;;;;46.58;8.68;;;9.40;99.90;;;;;;5072952;28;20400;-68
2023/12/08 11:05:28;;;;;;;36.03;7.60;;;9.40;99.90;;;;;;5073089;28;20047;-62
2023/12/08 11:07:55;;;;;;;35.72;7.07;;;9.40;99.90;;;;;;5085076;28;20052;-68
2023/12/08 11:10:22;;;;;;;32.67;5.88;;;9.50;99.90;;;;;;5085856;28;20043;-67
2023/12/08 11:12:49;;;;;;;35.15;6.55;;;9.50;99.90;;;;;;5072957;28;20040;-67
2023/12/08 11:15:16;;;;;;;32.38;6.25;;;9.50;99.90;;;;;;5072907;28;20040;-68
2023/12/08 11:17:43;;;;;;;34.03;5.55;;;9.50;99.90;;;;;;5072852;28;20048;-68
2023/12/08 11:20:10;;;;;;;32.45;5.57;;;9.50;99.90;;;;;;5072841;28;20155;-67
2023/12/08 11:22:37;;;;;;;33.03;6.20;;;9.50;99.90;;;;;;5072749;28;20067;-68
2023/12/08 11:25:04;;;;;;;27.60;4.90;;;9.50;99.90;;;;;;5072897;28;20139;-63
2023/12/08 11:27:31;;;;;;;31.83;5.20;;;9.50;99.90;;;;;;5072675;28;20044;-63
2023/12/08 11:29:58;;;;;;;35.92;6.40;;;9.60;99.90;;;;;;5072924;28;20496;-63
2023/12/08 11:32:25;;;;;;;31.73;5.80;;;9.60;99.90;;;;;;5072786;28;20045;-62
2023/12/08 11:34:52;;;;;;;36.15;5.90;;;9.60;99.90;;;;;;5080716;28;20047;-63
2023/12/08 11:37:18;;;;;;;28.38;6.03;;;9.60;99.90;;;;;;5087070;28;20531;-63
2023/12/08 11:39:46;;;;;;;35.33;5.97;;;9.60;99.90;;;;;;5073506;28;20097;-64
2023/12/08 11:42:12;;;;;;;32.92;6.13;;;9.70;99.90;;;;;;5072046;28;20044;-65
2023/12/08 11:44:39;;;;;;;26.92;5.25;;;9.60;99.90;;;;;;5074564;28;20542;-65
2023/12/08 11:47:06;;;;;;;29.40;4.82;;;9.70;99.90;;;;;;5075956;28;20120;-65
2023/12/08 11:49:33;;;;;;;25.88;5.47;;;9.70;99.90;;;;;;5078048;28;20048;-65
2023/12/08 11:52:00;;;;;;;33.35;5.65;;;9.70;99.90;;;;;;5078020;28;20098;-69
2023/12/08 11:54:27;;;;;;;34.63;5.72;;;9.80;99.90;;;;;;5076085;28;20037;-69
2023/12/08 11:56:54;;;;;;;33.95;5.43;;;9.80;99.90;;;;;;5076147;28;20512;-69
2023/12/08 11:59:22;;;;;;;26.52;4.82;;;9.80;99.90;;;;;;5076083;28;20043;-64
2023/12/08 12:01:49;;;;;;;26.27;4.88;;;9.80;99.90;;;;;;5075885;28;20102;-68
2023/12/08 12:04:16;;;;;;;32.60;5.43;;;9.80;99.90;;;;;;5058387;28;20413;-69
2023/12/08 12:06:43;;;;;;;30.50;6.07;;;9.80;99.90;;;;;;5084274;28;20491;-69
2023/12/08 12:09:10;;;;;;;37.50;9.60;;;9.90;99.90;;;;;;5095265;28;20517;-69
2023/12/08 12:11:38;;;;;;;27.05;7.05;;;9.90;99.90;;;;;;5080588;28;20040;-69
2023/12/08 12:14:07;;;;;;;30.55;6.88;;;10.00;99.90;;;;;;5074362;28;20044;-69
2023/12/08 12:16:34;;;;;;;29.67;5.60;;;10.00;99.90;;;;;;5075759;28;20098;-69
2023/12/08 12:19:01;;;;;;;26.27;5.82;;;10.00;99.90;;;;;;5075621;28;20398;-69
2023/12/08 12:21:29;;;;;;;25.50;6.53;;;10.00;99.90;;;;;;5075160;28;20056;-70
2023/12/08 12:23:56;;;;;;;29.17;5.00;;;10.00;99.90;;;;;;5075538;28;20115;-63
2023/12/08 12:26:23;;;;;;;31.70;5.68;;;10.00;99.90;;;;;;5075522;28;20033;-63
2023/12/08 12:28:50;;;;;;;32.67;5.03;;;10.10;99.90;;;;;;5077208;28;20090;-63
2023/12/08 12:31:17;;;;;;;30.23;5.32;;;10.10;99.90;;;;;;5095198;28;20040;-63
2023/12/08 12:33:44;;;;;;;27.05;4.50;;;10.10;99.90;;;;;;5094115;28;20511;-63
2023/12/08 12:36:15;;;;;;;27.02;5.53;;;10.10;99.90;;;;;;5094688;28;20055;-68
2023/12/08 12:38:42;;;;;;;27.05;6.03;;;10.10;99.90;;;;;;5092586;28;20047;-64
2023/12/08 12:41:09;;;;;;;32.58;5.28;;;10.10;99.90;;;;;;5094327;28;20048;-64
2023/12/08 12:43:36;;;;;;;26.70;4.90;;;10.20;99.90;;;;;;5088189;28;20044;-64